createdAt,value
2019-02-15T00:01:12.169Z,4.41
2019-02-15T00:03:38.003Z,4.51
2019-02-15T00:06:03.833Z,4.47
2019-02-15T00:08:29.685Z,4.50
2019-02-15T00:10:55.726Z,4.52
2019-02-15T00:13:21.488Z,4.54
2019-02-15T00:15:47.341Z,4.56
2019-02-15T00:18:15.161Z,4.65
2019-02-15T00:20:45.929Z,4.77
2019-02-15T00:23:11.763Z,4.79
2019-02-15T00:25:37.598Z,4.82
2019-02-15T00:28:03.473Z,4.93
2019-02-15T00:30:29.396Z,4.96
2019-02-15T00:32:55.243Z,4.98
2019-02-15T00:35:21.071Z,4.94
2019-02-15T00:37:47.011Z,4.90
2019-02-15T00:40:12.837Z,4.89
2019-02-15T00:42:39.059Z,4.93
2019-02-15T00:45:05.589Z,4.88
2019-02-15T00:47:33.342Z,4.86
2019-02-15T00:50:01.084Z,4.86
2019-02-15T00:52:45.431Z,4.90
2019-02-15T00:55:19.033Z,4.93
2019-02-15T00:57:52.948Z,4.94
2019-02-15T01:00:23.440Z,4.91
2019-02-15T01:02:51.197Z,4.90
2019-02-15T01:05:18.939Z,4.89
2019-02-15T01:07:49.473Z,4.80
2019-02-15T01:10:35.357Z,4.81
2019-02-15T01:13:05.964Z,4.81
2019-02-15T01:15:31.792Z,4.79
2019-02-15T01:17:57.743Z,4.80
2019-02-15T01:20:23.563Z,4.82
2019-02-15T01:22:49.433Z,4.82
2019-02-15T01:25:15.655Z,4.80
2019-02-15T01:27:46.114Z,4.81
2019-02-15T01:30:14.001Z,4.81
2019-02-15T01:32:41.737Z,4.74
2019-02-15T01:35:09.594Z,4.73
2019-02-15T01:37:43.501Z,4.76
2019-02-15T01:40:19.961Z,4.79
2019-02-15T01:42:53.675Z,4.78
2019-02-15T01:45:21.815Z,4.76
2019-02-15T01:47:47.624Z,4.75
2019-02-15T01:50:13.472Z,4.74
2019-02-15T01:52:39.289Z,4.74
2019-02-15T01:55:05.228Z,4.70
2019-02-15T01:57:31.061Z,4.72
2019-02-15T01:59:56.912Z,4.75
2019-02-15T02:02:24.633Z,4.75
2019-02-15T02:04:50.456Z,4.80
2019-02-15T02:07:16.306Z,4.82
2019-02-15T02:09:42.141Z,4.76
2019-02-15T02:12:08.024Z,4.68
2019-02-15T02:14:33.877Z,4.65
2019-02-15T02:17:00.125Z,4.53
2019-02-15T02:19:26.160Z,4.62
2019-02-15T02:21:52.018Z,4.71
2019-02-15T02:24:17.834Z,4.69
2019-02-15T02:26:43.677Z,4.65
2019-02-15T02:29:09.485Z,4.63
2019-02-15T02:31:35.337Z,4.64
2019-02-15T02:34:01.160Z,4.53
2019-02-15T02:36:49.155Z,4.39
2019-02-15T02:39:15.183Z,4.25
2019-02-15T02:41:41.031Z,4.15
2019-02-15T02:44:06.898Z,4.21
2019-02-15T02:46:32.750Z,4.28
2019-02-15T02:48:58.596Z,4.27
2019-02-15T02:51:24.416Z,4.24
2019-02-15T02:53:50.253Z,4.24
2019-02-15T02:56:16.064Z,4.27
2019-02-15T02:58:41.909Z,4.26
2019-02-15T03:01:07.725Z,4.25
2019-02-15T03:03:33.673Z,4.22
2019-02-15T03:05:59.517Z,4.16
2019-02-15T03:08:25.412Z,4.04
2019-02-15T03:10:51.263Z,3.88
2019-02-15T03:13:17.097Z,3.78
2019-02-15T03:15:42.922Z,3.70
2019-02-15T03:18:08.753Z,3.61
2019-02-15T03:20:35.136Z,3.50
2019-02-15T03:23:01.022Z,3.41
2019-02-15T03:25:26.842Z,3.33
2019-02-15T03:27:52.683Z,3.25
2019-02-15T03:30:18.500Z,3.18
2019-02-15T03:32:44.339Z,3.14
2019-02-15T03:35:10.181Z,3.13
2019-02-15T03:37:37.915Z,3.14
2019-02-15T03:40:08.469Z,3.14
2019-02-15T03:42:34.295Z,3.22
2019-02-15T03:45:00.667Z,3.30
2019-02-15T03:47:26.905Z,3.38
2019-02-15T03:49:52.848Z,3.50
2019-02-15T03:52:18.658Z,3.57
2019-02-15T03:54:44.495Z,3.65
2019-02-15T03:57:10.321Z,3.75
2019-02-15T03:59:36.569Z,3.78
2019-02-15T04:02:02.514Z,3.80
2019-02-15T04:04:28.353Z,3.80
2019-02-15T04:06:54.164Z,3.92
2019-02-15T04:09:20.003Z,3.91
2019-02-15T04:11:45.861Z,3.91
2019-02-15T04:14:11.798Z,3.89
2019-02-15T04:16:37.613Z,3.87
2019-02-15T04:19:03.422Z,3.79
2019-02-15T04:21:29.279Z,3.73
2019-02-15T04:23:55.116Z,3.79
2019-02-15T04:26:20.971Z,3.85
2019-02-15T04:28:46.796Z,3.83
2019-02-15T04:31:12.641Z,3.83
2019-02-15T04:33:38.456Z,3.87
2019-02-15T04:36:04.312Z,3.93
2019-02-15T04:38:30.128Z,3.90
2019-02-15T04:40:55.972Z,3.87
2019-02-15T04:43:21.788Z,3.94
2019-02-15T04:45:47.643Z,3.95
2019-02-15T04:48:13.462Z,4.00
2019-02-15T04:50:39.285Z,4.03
2019-02-15T04:53:05.142Z,4.05
2019-02-15T04:55:30.964Z,4.05
2019-02-15T04:57:56.808Z,4.04
2019-02-15T05:00:22.723Z,4.06
2019-02-15T05:02:48.574Z,4.09
2019-02-15T05:05:14.394Z,4.10
2019-02-15T05:07:40.232Z,4.16
2019-02-15T05:10:06.164Z,4.29
2019-02-15T05:12:32.024Z,4.34
2019-02-15T05:14:57.845Z,4.39
2019-02-15T05:17:23.719Z,4.39
2019-02-15T05:19:49.580Z,4.33
2019-02-15T05:22:15.442Z,4.28
2019-02-15T05:24:41.259Z,4.21
2019-02-15T05:27:07.123Z,4.27
2019-02-15T05:29:32.937Z,4.24
2019-02-15T05:31:58.800Z,4.16
2019-02-15T05:34:24.701Z,4.07
2019-02-15T05:36:50.524Z,3.96
2019-02-15T05:39:16.356Z,3.95
2019-02-15T05:41:42.169Z,3.96
2019-02-15T05:44:08.016Z,3.89
2019-02-15T05:46:33.881Z,3.86
2019-02-15T05:48:59.725Z,3.84
2019-02-15T05:51:25.538Z,3.75
2019-02-15T05:53:51.432Z,3.70
2019-02-15T05:56:17.255Z,3.53
2019-02-15T05:58:43.115Z,3.41
2019-02-15T06:01:10.443Z,3.28
2019-02-15T06:03:36.298Z,3.05
2019-02-15T06:06:02.124Z,3.05
2019-02-15T06:08:27.980Z,3.00
2019-02-15T06:10:53.819Z,2.91
2019-02-15T06:13:19.670Z,2.85
2019-02-15T06:15:45.498Z,2.79
2019-02-15T06:18:11.342Z,2.77
2019-02-15T06:20:37.185Z,2.71
2019-02-15T06:23:03.011Z,2.66
2019-02-15T06:25:28.866Z,2.63
2019-02-15T06:27:54.695Z,2.61
2019-02-15T06:30:20.659Z,2.54
2019-02-15T06:32:46.499Z,2.50
2019-02-15T06:35:12.344Z,2.47
2019-02-15T06:37:38.263Z,2.45
2019-02-15T06:40:05.037Z,2.43
2019-02-15T06:42:30.848Z,2.40
2019-02-15T06:44:56.818Z,2.34
2019-02-15T06:47:22.672Z,2.30
2019-02-15T06:49:48.544Z,2.30
2019-02-15T06:52:14.356Z,2.32
2019-02-15T06:54:40.216Z,2.31
2019-02-15T06:57:06.129Z,2.32
2019-02-15T06:59:48.881Z,2.32
2019-02-15T07:02:25.547Z,2.33
2019-02-15T07:04:53.307Z,2.33
2019-02-15T07:07:19.164Z,2.38
2019-02-15T07:09:44.974Z,2.43
2019-02-15T07:12:10.867Z,2.51
2019-02-15T07:14:36.680Z,2.61
2019-02-15T07:17:02.637Z,2.67
2019-02-15T07:19:29.846Z,2.73
2019-02-15T07:21:55.685Z,2.78
2019-02-15T07:24:21.504Z,2.83
2019-02-15T07:26:47.355Z,2.84
2019-02-15T07:29:13.179Z,2.89
2019-02-15T07:31:39.028Z,2.95
2019-02-15T07:34:04.841Z,2.99
2019-02-15T07:36:30.714Z,3.04
2019-02-15T07:38:56.528Z,3.11
2019-02-15T07:41:22.372Z,3.17
2019-02-15T07:43:48.240Z,3.24
2019-02-15T07:46:14.132Z,3.32
2019-02-15T07:48:39.978Z,3.49
2019-02-15T07:51:09.603Z,3.79
2019-02-15T07:53:33.657Z,4.03
2019-02-15T07:56:03.188Z,4.23
2019-02-15T07:58:30.633Z,4.47
2019-02-15T08:00:56.459Z,4.73
2019-02-15T08:03:22.304Z,5.00
2019-02-15T08:05:48.124Z,5.38
2019-02-15T08:08:13.977Z,5.65
2019-02-15T08:10:39.791Z,5.91
2019-02-15T08:13:05.721Z,6.08
2019-02-15T08:15:36.207Z,6.22
2019-02-15T08:17:59.392Z,6.35
2019-02-15T08:20:25.249Z,6.53
2019-02-15T08:22:51.108Z,6.91
2019-02-15T08:25:16.985Z,7.04
2019-02-15T08:27:42.797Z,7.14
2019-02-15T08:30:10.238Z,7.32
2019-02-15T08:32:36.156Z,7.47
2019-02-15T08:35:03.298Z,7.68
2019-02-15T08:37:29.121Z,7.82
2019-02-15T08:39:54.965Z,8.03
2019-02-15T08:42:21.055Z,8.19
2019-02-15T08:44:46.912Z,8.32
2019-02-15T08:47:12.748Z,8.41
2019-02-15T08:49:38.616Z,8.52
2019-02-15T08:52:04.448Z,8.66
2019-02-15T08:54:30.714Z,8.83
2019-02-15T08:56:56.534Z,8.93
2019-02-15T08:59:22.370Z,9.07
2019-02-15T09:01:50.088Z,9.14
2019-02-15T09:04:15.905Z,9.30
2019-02-15T09:06:41.765Z,9.45
2019-02-15T09:09:07.579Z,9.55
2019-02-15T09:11:33.541Z,9.66
2019-02-15T09:13:59.377Z,9.83
2019-02-15T09:16:25.202Z,9.96
2019-02-15T09:18:51.014Z,10.05
2019-02-15T09:21:16.867Z,10.17
2019-02-15T09:23:42.677Z,10.32
2019-02-15T09:26:08.537Z,10.41
2019-02-15T09:28:42.073Z,10.56
2019-02-15T09:31:07.943Z,10.66
2019-02-15T09:33:33.846Z,10.77
2019-02-15T09:35:59.728Z,10.89
2019-02-15T09:38:25.548Z,10.98
2019-02-15T09:40:51.548Z,11.08
2019-02-15T09:43:17.350Z,11.20
2019-02-15T09:45:43.290Z,11.32
2019-02-15T09:48:09.145Z,11.47
2019-02-15T09:50:34.967Z,11.57
2019-02-15T09:53:00.920Z,11.74
2019-02-15T09:55:26.740Z,11.87
2019-02-15T09:57:52.640Z,12.01
2019-02-15T10:00:18.548Z,12.21
2019-02-15T10:02:44.422Z,12.62
2019-02-15T10:05:10.347Z,12.95
2019-02-15T10:07:36.196Z,13.31
2019-02-15T10:10:02.442Z,13.83
2019-02-15T10:12:28.320Z,14.38
2019-02-15T10:14:54.240Z,14.73
2019-02-15T10:17:20.107Z,15.58
2019-02-15T10:19:45.953Z,15.50
2019-02-15T10:22:11.818Z,16.25
2019-02-15T10:24:37.791Z,17.20
2019-02-15T10:27:03.709Z,18.37
2019-02-15T10:29:29.593Z,19.69
2019-02-15T10:31:55.549Z,19.70
2019-02-15T10:34:21.399Z,20.80
2019-02-15T10:36:47.656Z,22.19
2019-02-15T10:39:13.516Z,21.77
2019-02-15T10:41:39.358Z,24.34
2019-02-15T10:44:05.216Z,23.74
2019-02-15T10:46:37.705Z,21.68
2019-02-15T10:48:58.809Z,22.67
2019-02-15T10:51:24.681Z,23.10
2019-02-15T10:53:50.517Z,23.72
2019-02-15T10:56:16.461Z,24.75
2019-02-15T10:58:42.279Z,25.40
2019-02-15T11:01:08.159Z,26.55
2019-02-15T11:03:33.994Z,26.48
2019-02-15T11:05:59.936Z,25.66
2019-02-15T11:08:25.771Z,26.84
2019-02-15T11:10:51.661Z,26.98
2019-02-15T11:13:17.609Z,28.74
2019-02-15T11:15:43.468Z,28.72
2019-02-15T11:18:09.327Z,29.62
2019-02-15T11:20:35.223Z,28.93
2019-02-15T11:23:01.157Z,29.08
2019-02-15T11:25:27.346Z,29.99
2019-02-15T11:27:53.192Z,28.80
2019-02-15T11:30:19.542Z,31.92
2019-02-15T11:32:45.381Z,33.19
2019-02-15T11:35:12.318Z,29.28
2019-02-15T11:37:38.369Z,27.89
2019-02-15T11:40:08.013Z,26.19
2019-02-15T11:42:33.874Z,28.70
2019-02-15T11:44:59.719Z,30.15
2019-02-15T11:47:25.587Z,32.50
2019-02-15T11:49:51.426Z,33.36
2019-02-15T11:52:17.284Z,31.88
2019-02-15T11:54:43.100Z,30.81
2019-02-15T11:57:08.976Z,31.39
2019-02-15T11:59:34.825Z,33.00
2019-02-15T12:02:06.080Z,32.28
2019-02-15T12:04:28.501Z,33.33
2019-02-15T12:06:54.343Z,34.71
2019-02-15T12:09:20.278Z,35.37
2019-02-15T12:11:46.543Z,36.51
2019-02-15T12:14:12.380Z,34.99
2019-02-15T12:16:38.721Z,37.25
2019-02-15T12:19:04.713Z,37.95
2019-02-15T12:21:30.677Z,38.29
2019-02-15T12:23:56.570Z,39.43
2019-02-15T12:26:22.477Z,40.22
2019-02-15T12:28:48.311Z,38.56
2019-02-15T12:31:14.130Z,37.54
2019-02-15T12:33:40.118Z,34.87
2019-02-15T12:36:05.945Z,36.27
2019-02-15T12:38:31.829Z,33.96
2019-02-15T12:40:57.678Z,34.15
2019-02-15T12:43:23.511Z,37.43
2019-02-15T12:45:49.344Z,38.17
2019-02-15T12:48:15.504Z,37.58
2019-02-15T12:50:41.332Z,38.42
2019-02-15T12:53:07.191Z,38.20
2019-02-15T12:55:33.062Z,38.49
2019-02-15T12:57:58.910Z,39.83
2019-02-15T13:00:24.755Z,42.51
2019-02-15T13:02:50.600Z,40.20
2019-02-15T13:05:16.527Z,39.48
2019-02-15T13:07:42.455Z,36.99
2019-02-15T13:10:12.022Z,40.78
2019-02-15T13:12:37.873Z,39.27
2019-02-15T13:15:06.757Z,41.45
2019-02-15T13:17:32.556Z,41.79
2019-02-15T13:19:58.412Z,41.44
2019-02-15T13:22:24.229Z,43.24
2019-02-15T13:24:50.145Z,42.71
2019-02-15T13:27:16.092Z,39.68
2019-02-15T13:29:41.982Z,39.67
2019-02-15T13:32:13.203Z,40.42
2019-02-15T13:34:39.159Z,41.20
2019-02-15T13:37:04.986Z,36.94
2019-02-15T13:39:30.884Z,37.53
2019-02-15T13:41:57.042Z,37.87
2019-02-15T13:44:22.884Z,39.94
2019-02-15T13:46:48.755Z,42.22
2019-02-15T13:49:14.578Z,41.31
2019-02-15T13:51:40.452Z,39.55
2019-02-15T13:54:06.281Z,40.32
2019-02-15T13:56:32.143Z,44.17
2019-02-15T13:58:57.986Z,44.04
2019-02-15T14:01:24.151Z,44.11
2019-02-15T14:03:49.976Z,39.66
2019-02-15T14:06:15.956Z,39.41
2019-02-15T14:08:41.785Z,40.77
2019-02-15T14:11:07.703Z,38.83
2019-02-15T14:13:33.539Z,36.81
2019-02-15T14:15:59.400Z,39.46
2019-02-15T14:18:25.312Z,38.46
2019-02-15T14:20:51.142Z,41.04
2019-02-15T14:23:17.007Z,40.98
2019-02-15T14:25:42.884Z,45.03
2019-02-15T14:28:08.831Z,41.82
2019-02-15T14:30:35.079Z,41.00
2019-02-15T14:33:00.968Z,42.10
2019-02-15T14:35:26.848Z,41.24
2019-02-15T14:37:52.733Z,44.45
2019-02-15T14:40:19.080Z,44.74
2019-02-15T14:42:44.939Z,45.07
2019-02-15T14:45:12.062Z,42.67
2019-02-15T14:47:38.135Z,44.45
2019-02-15T14:50:06.702Z,45.42
2019-02-15T14:52:32.548Z,45.25
2019-02-15T14:54:58.452Z,40.44
2019-02-15T14:57:24.279Z,43.37
2019-02-15T14:59:50.567Z,43.87
2019-02-15T15:02:16.427Z,42.76
2019-02-15T15:04:42.338Z,43.59
2019-02-15T15:07:08.263Z,45.31
2019-02-15T15:09:34.124Z,43.61
2019-02-15T15:11:59.976Z,42.09
2019-02-15T15:14:26.321Z,43.23
2019-02-15T15:16:52.254Z,43.64
2019-02-15T15:19:18.121Z,41.40
2019-02-15T15:21:43.939Z,40.18
2019-02-15T15:24:09.777Z,39.36
2019-02-15T15:26:35.605Z,33.34
2019-02-15T15:29:01.599Z,30.28
2019-02-15T15:31:27.445Z,26.27
2019-02-15T15:33:53.320Z,22.98
2019-02-15T15:36:19.245Z,22.53
2019-02-15T15:38:45.095Z,21.43
2019-02-15T15:41:11.076Z,21.33
2019-02-15T15:43:37.011Z,20.94
2019-02-15T15:46:02.871Z,20.48
2019-02-15T15:48:28.703Z,20.31
2019-02-15T15:50:54.571Z,20.15
2019-02-15T15:53:20.472Z,19.50
2019-02-15T15:55:46.631Z,19.38
2019-02-15T15:58:12.481Z,18.88
2019-02-15T16:00:39.445Z,18.93
2019-02-15T16:03:05.496Z,18.57
2019-02-15T16:05:31.356Z,18.31
2019-02-15T16:07:57.188Z,18.08
2019-02-15T16:10:23.098Z,18.00
2019-02-15T16:12:49.130Z,17.85
2019-02-15T16:15:15.708Z,17.83
2019-02-15T16:17:41.562Z,17.65
2019-02-15T16:20:10.291Z,17.53
2019-02-15T16:22:36.183Z,17.08
2019-02-15T16:25:03.215Z,17.00
2019-02-15T16:27:29.200Z,16.80
2019-02-15T16:29:55.008Z,16.60
2019-02-15T16:32:20.969Z,16.51
2019-02-15T16:34:46.811Z,16.35
2019-02-15T16:37:12.704Z,16.20
2019-02-15T16:39:38.535Z,16.04
2019-02-15T16:42:04.384Z,15.89
2019-02-15T16:44:30.219Z,15.71
2019-02-15T16:46:56.103Z,15.56
2019-02-15T16:49:21.917Z,15.37
2019-02-15T16:51:47.782Z,15.22
2019-02-15T16:54:13.597Z,15.15
2019-02-15T16:56:39.471Z,14.97
2019-02-15T16:59:05.529Z,14.82
2019-02-15T17:01:31.470Z,14.67
2019-02-15T17:03:57.462Z,14.57
2019-02-15T17:06:23.465Z,14.44
2019-02-15T17:08:49.683Z,14.31
2019-02-15T17:11:15.525Z,14.19
2019-02-15T17:13:41.539Z,14.08
2019-02-15T17:16:07.372Z,13.99
2019-02-15T17:18:33.350Z,13.76
2019-02-15T17:20:59.190Z,13.76
2019-02-15T17:23:25.039Z,13.68
2019-02-15T17:25:50.889Z,13.62
2019-02-15T17:28:17.049Z,13.59
2019-02-15T17:30:43.009Z,13.55
2019-02-15T17:33:08.855Z,13.47
2019-02-15T17:35:34.798Z,13.42
2019-02-15T17:38:00.642Z,13.38
2019-02-15T17:40:26.600Z,13.26
2019-02-15T17:42:52.542Z,13.22
2019-02-15T17:45:18.394Z,13.16
2019-02-15T17:47:44.252Z,13.06
2019-02-15T17:50:11.109Z,13.00
2019-02-15T17:52:37.061Z,12.99
2019-02-15T17:55:04.796Z,12.98
2019-02-15T17:57:30.646Z,12.96
2019-02-15T17:59:56.544Z,12.85
2019-02-15T18:02:22.644Z,12.82
2019-02-15T18:04:48.507Z,12.79
2019-02-15T18:07:14.432Z,12.75
2019-02-15T18:09:40.382Z,12.64
2019-02-15T18:12:06.284Z,12.54
2019-02-15T18:14:32.145Z,12.52
2019-02-15T18:16:59.126Z,12.41
2019-02-15T18:19:25.417Z,12.35
2019-02-15T18:21:51.521Z,12.35
2019-02-15T18:24:17.389Z,12.33
2019-02-15T18:26:43.250Z,12.25
2019-02-15T18:29:09.265Z,12.26
2019-02-15T18:31:35.277Z,12.25
2019-02-15T18:34:01.114Z,12.17
2019-02-15T18:36:27.139Z,12.09
2019-02-15T18:38:52.975Z,12.07
2019-02-15T18:41:18.954Z,11.99
2019-02-15T18:43:44.822Z,11.94
2019-02-15T18:46:10.820Z,11.92
2019-02-15T18:48:36.782Z,11.81
2019-02-15T18:51:03.083Z,11.80
2019-02-15T18:53:29.010Z,11.70
2019-02-15T18:55:54.895Z,11.61
2019-02-15T18:58:20.811Z,11.60
2019-02-15T19:00:46.703Z,11.60
2019-02-15T19:03:12.681Z,11.48
2019-02-15T19:05:38.624Z,11.50
2019-02-15T19:08:04.507Z,11.47
2019-02-15T19:10:30.361Z,11.45
2019-02-15T19:12:56.280Z,11.44
2019-02-15T19:15:22.247Z,11.36
2019-02-15T19:17:48.162Z,11.28
2019-02-15T19:20:15.114Z,11.17
2019-02-15T19:22:41.123Z,11.12
2019-02-15T19:25:09.854Z,11.12
2019-02-15T19:27:39.203Z,11.07
